Time;durP1;ratioP1;P1;durP2;ratioP2;P2;SDS_P1;SDS_P2;PMS_P1;PMS_P2;Temp;Humidity;BMP_temperature;BMP_pressure;BME280_temperature;BME280_humidity;BME280_pressure;Samples;Min_cycle;Max_cycle;Signal;HPM_P1;HPM_P2
2021/06/24 00:00:50;;;;;;;;;13.50;10.00;;;;;15.23;72.83;101850.09;4979177;28;46893;-66
2021/06/24 00:03:15;;;;;;;;;10.25;9.75;;;;;15.26;72.28;101851.63;4962641;28;45537;-67
2021/06/24 00:05:43;;;;;;;;;11.00;10.25;;;;;15.27;72.31;101846.13;4958864;28;45563;-67
2021/06/24 00:08:09;;;;;;;;;14.75;10.75;;;;;15.27;72.06;101845.28;4962180;28;46131;-68
2021/06/24 00:10:37;;;;;;;;;15.50;14.00;;;;;15.27;72.18;101843.47;4964454;28;45616;-66
2021/06/24 00:13:03;;;;;;;;;16.00;13.50;;;;;15.29;72.35;101853.16;4966671;28;45580;-65
2021/06/24 00:15:28;;;;;;;;;13.50;11.50;;;;;15.27;72.22;101840.81;4963240;28;45758;-66
2021/06/24 00:17:53;;;;;;;;;13.25;11.75;;;;;15.30;72.37;101838.81;4962017;28;45500;-70
2021/06/24 00:20:19;;;;;;;;;15.50;13.50;;;;;15.33;72.43;101838.50;4965137;28;46267;-66
2021/06/24 00:22:44;;;;;;;;;13.75;11.00;;;;;15.33;72.25;101838.50;4964804;28;45508;-68
2021/06/24 00:25:11;;;;;;;;;15.00;13.50;;;;;15.32;72.09;101827.03;4967203;28;45529;-68
2021/06/24 00:27:36;;;;;;;;;17.25;10.50;;;;;15.34;71.93;101834.88;4962699;28;45481;-68
2021/06/24 00:30:03;;;;;;;;;15.25;11.50;;;;;15.35;71.91;101832.03;4962292;28;47293;-69
2021/06/24 00:32:29;;;;;;;;;17.50;9.50;;;;;15.35;72.21;101816.06;4962695;28;45497;-68
2021/06/24 00:35:00;;;;;;;;;11.75;9.00;;;;;15.37;72.60;101829.22;4961231;28;45628;-65
2021/06/24 00:37:25;;;;;;;;;10.00;10.00;;;;;15.37;71.67;101822.06;4966226;28;45653;-68
2021/06/24 00:39:51;;;;;;;;;14.75;12.25;;;;;15.38;71.70;101820.25;4969365;28;45520;-66
2021/06/24 00:42:16;;;;;;;;;13.00;12.00;;;;;15.37;71.42;101819.41;4981362;28;45603;-65
2021/06/24 00:44:42;;;;;;;;;11.25;9.75;;;;;15.35;71.75;101816.06;4965329;28;45584;-66
2021/06/24 00:47:08;;;;;;;;;11.00;10.25;;;;;15.33;71.32;101818.06;4964451;28;45504;-69
2021/06/24 00:49:33;;;;;;;;;9.50;9.00;;;;;15.33;72.30;101812.75;4967175;28;45517;-71
2021/06/24 00:51:58;;;;;;;;;8.50;8.50;;;;;15.33;71.81;101810.06;4969579;28;45494;-71
2021/06/24 00:54:24;;;;;;;;;5.25;2.25;;;;;15.35;71.52;101809.91;4963559;28;46025;-68
2021/06/24 00:56:50;;;;;;;;;15.50;9.00;;;;;15.35;71.52;101810.72;4965108;28;45518;-70
2021/06/24 00:59:15;;;;;;;;;15.75;14.25;;;;;15.36;71.67;101811.59;4964204;28;47276;-67
2021/06/24 01:01:40;;;;;;;;;11.50;11.50;;;;;15.37;71.52;101815.91;4965295;28;45568;-67
2021/06/24 01:04:06;;;;;;;;;13.25;11.00;;;;;15.38;71.47;101814.91;4968568;28;45423;-70
2021/06/24 01:06:33;;;;;;;;;11.00;10.00;;;;;15.38;71.57;101805.13;4965166;28;45461;-71
2021/06/24 01:08:58;;;;;;;;;12.00;11.00;;;;;15.38;71.49;101807.78;4964481;28;47103;-69
2021/06/24 01:11:24;;;;;;;;;10.25;10.00;;;;;15.38;71.78;101804.25;4966277;28;45478;-69
2021/06/24 01:13:50;;;;;;;;;11.75;9.25;;;;;15.39;71.37;101800.63;4964518;28;45856;-67
2021/06/24 01:16:16;;;;;;;;;14.00;10.50;;;;;15.38;71.38;101797.13;4970173;28;45909;-65
2021/06/24 01:18:42;;;;;;;;;11.75;10.75;;;;;15.39;71.31;101800.63;4965303;28;45905;-66
2021/06/24 01:21:07;;;;;;;;;11.25;9.00;;;;;15.39;71.33;101800.63;4964368;28;45521;-69
2021/06/24 01:23:40;;;;;;;;;9.75;9.50;;;;;15.38;71.26;101794.47;4967407;28;45435;-70
2021/06/24 01:26:06;;;;;;;;;11.00;9.50;;;;;15.38;71.10;101798.94;4966726;28;45694;-67
2021/06/24 01:28:31;;;;;;;;;10.00;9.75;;;;;15.37;71.50;101790.09;4967075;28;46267;-70
2021/06/24 01:30:56;;;;;;;;;9.00;8.75;;;;;15.37;71.27;101789.28;4967865;28;45449;-68
2021/06/24 01:33:25;;;;;;;;;10.50;9.75;;;;;15.37;71.32;101781.28;4963298;28;45843;-70
2021/06/24 01:35:56;;;;;;;;;11.50;10.00;;;;;15.38;71.62;101777.63;4964676;28;45804;-66
2021/06/24 01:38:22;;;;;;;;;11.25;9.50;;;;;15.38;71.54;101782.94;4963342;28;46222;-68
2021/06/24 01:40:47;;;;;;;;;11.00;10.00;;;;;15.37;71.44;101773.28;4966962;28;45987;-66
2021/06/24 01:43:13;;;;;;;;;11.25;10.50;;;;;15.37;71.46;101781.28;4968761;28;45461;-69
2021/06/24 01:45:56;;;;;;;;;9.00;9.00;;;;;15.37;72.11;101775.97;4964529;28;45701;-68
2021/06/24 01:48:23;;;;;;;;;12.50;10.75;;;;;15.38;72.33;101780.28;4962627;28;45616;-68
2021/06/24 01:50:49;;;;;;;;;9.50;9.50;;;;;15.37;72.50;101773.28;4963029;28;45574;-67
2021/06/24 01:53:15;;;;;;;;;13.50;9.50;;;;;15.36;72.26;101769.81;4963318;28;45645;-70
2021/06/24 01:55:41;;;;;;;;;11.50;10.00;;;;;15.34;71.93;101773.63;4965024;28;46170;-67
2021/06/24 01:58:12;;;;;;;;;7.50;7.50;;;;;15.33;72.34;101772.78;4965339;28;46238;-69
2021/06/24 02:00:41;;;;;;;;;10.25;9.50;;;;;15.32;72.17;101776.41;4962308;28;45529;-68
2021/06/24 02:03:07;;;;;;;;;11.25;10.00;;;;;15.31;71.96;101760.63;4962388;28;46017;-68
2021/06/24 02:05:32;;;;;;;;;9.00;8.75;;;;;15.31;73.11;101768.59;4964366;28;45662;-68
2021/06/24 02:07:57;;;;;;;;;9.75;7.75;;;;;15.32;73.20;101772.94;4965577;28;45822;-67
2021/06/24 02:10:23;;;;;;;;;9.25;8.00;;;;;15.31;72.20;101776.59;4967429;28;45842;-66
2021/06/24 02:12:48;;;;;;;;;10.75;9.50;;;;;15.29;71.28;101768.75;4967553;28;46277;-67
2021/06/24 02:15:15;;;;;;;;;11.75;9.25;;;;;15.26;71.96;101759.25;4964394;28;45786;-68
2021/06/24 02:17:40;;;;;;;;;11.75;8.00;;;;;15.26;71.45;101756.56;4966145;28;45534;-68
2021/06/24 02:20:09;;;;;;;;;9.75;8.50;;;;;15.25;71.52;101749.56;4966949;28;45729;-66
2021/06/24 02:22:35;;;;;;;;;11.00;8.00;;;;;15.26;71.59;101753.09;4965966;28;46636;-70
2021/06/24 02:25:01;;;;;;;;;12.25;9.25;;;;;15.24;71.95;101755.06;4968444;28;45435;-67
2021/06/24 02:27:26;;;;;;;;;10.00;8.00;;;;;15.20;71.33;101753.69;4964078;28;47199;-67
2021/06/24 02:29:52;;;;;;;;;8.50;8.50;;;;;15.18;72.12;101756.53;4963984;28;45386;-66
2021/06/24 02:32:18;;;;;;;;;9.00;9.00;;;;;15.15;71.28;101751.50;4964657;28;45559;-65
2021/06/24 02:34:45;;;;;;;;;12.00;8.00;;;;;15.16;71.40;101761.16;4966488;28;45756;-70
2021/06/24 02:37:10;;;;;;;;;9.50;9.00;;;;;15.14;71.95;101757.81;4967448;28;47127;-66
2021/06/24 02:39:35;;;;;;;;;9.25;9.00;;;;;15.14;71.70;101746.34;4965380;28;45393;-69
2021/06/24 02:42:01;;;;;;;;;9.25;8.50;;;;;15.14;71.83;101751.66;4964196;28;45554;-66
2021/06/24 02:44:27;;;;;;;;;10.00;10.00;;;;;15.14;71.87;101752.50;4963447;28;45408;-68
2021/06/24 02:46:52;;;;;;;;;6.75;6.75;;;;;15.16;72.35;101753.19;4963882;28;46092;-67
2021/06/24 02:49:18;;;;;;;;;7.75;7.75;;;;;15.17;72.88;101754.84;4968138;28;45478;-67
2021/06/24 02:51:46;;;;;;;;;13.00;9.00;;;;;15.18;72.64;101748.53;4965438;28;46146;-68
2021/06/24 02:54:11;;;;;;;;;8.00;7.25;;;;;15.19;71.68;101752.88;4963325;28;45526;-68
2021/06/24 02:56:41;;;;;;;;;12.00;7.50;;;;;15.18;72.12;101756.53;4966156;28;45520;-68
2021/06/24 02:59:07;;;;;;;;;8.50;7.00;;;;;15.14;71.64;101741.00;4962471;28;45535;-68
2021/06/24 03:01:33;;;;;;;;;13.00;9.25;;;;;15.18;72.67;101745.88;4966048;28;45537;-67
2021/06/24 03:03:59;;;;;;;;;11.50;9.00;;;;;15.18;71.35;101748.53;4967834;28;45881;-67
2021/06/24 03:06:24;;;;;;;;;11.75;10.00;;;;;15.17;72.52;101740.69;4964570;28;45960;-67
2021/06/24 03:08:50;;;;;;;;;8.75;8.00;;;;;15.16;71.81;101749.69;4963084;28;45550;-68
2021/06/24 03:11:17;;;;;;;;;10.25;9.75;;;;;15.16;71.91;101747.84;4965022;28;46198;-68
2021/06/24 03:13:43;;;;;;;;;9.75;9.00;;;;;15.17;71.64;101748.69;4963188;28;46419;-67
2021/06/24 03:16:09;;;;;;;;;12.75;9.25;;;;;15.15;71.69;101748.81;4966904;28;45545;-67
2021/06/24 03:18:34;;;;;;;;;11.50;9.50;;;;;15.13;71.49;101742.81;4964359;28;45625;-68
2021/06/24 03:21:00;;;;;;;;;10.00;8.75;;;;;15.14;72.36;101743.69;4962971;28;46029;-69
2021/06/24 03:23:25;;;;;;;;;9.00;8.00;;;;;15.13;72.04;101748.13;4963312;28;45681;-67
2021/06/24 03:25:52;;;;;;;;;8.25;7.25;;;;;15.12;71.38;101743.81;4962428;28;48007;-68
2021/06/24 03:28:18;;;;;;;;;12.25;10.00;;;;;15.09;71.57;101749.47;4967918;28;45512;-67
2021/06/24 03:30:43;;;;;;;;;11.25;8.50;;;;;15.10;71.52;101742.31;4979847;28;45786;-66
2021/06/24 03:33:09;;;;;;;;;9.25;6.00;;;;;15.09;71.85;101745.97;4963343;28;45630;-68
2021/06/24 03:35:35;;;;;;;;;12.00;8.50;;;;;15.07;71.76;101735.47;4964176;28;46519;-67
2021/06/24 03:38:00;;;;;;;;;8.75;6.75;;;;;15.07;71.95;101746.09;4963192;28;45512;-68
2021/06/24 03:40:25;;;;;;;;;11.25;9.50;;;;;15.05;71.94;101745.41;4966601;28;46024;-68
2021/06/24 03:42:52;;;;;;;;;9.00;8.25;;;;;15.05;71.88;101748.91;4965019;28;45540;-69
2021/06/24 03:45:18;;;;;;;;;11.00;8.00;;;;;15.05;72.07;101740.09;4963802;28;45929;-67
2021/06/24 03:47:44;;;;;;;;;10.00;8.00;;;;;15.03;72.61;101739.41;4963970;28;46202;-69
2021/06/24 03:50:12;;;;;;;;;8.25;8.00;;;;;15.03;72.95;101732.28;4965341;28;45505;-67
2021/06/24 03:52:37;;;;;;;;;9.25;7.75;;;;;15.03;72.09;101742.06;4963034;28;45952;-69
2021/06/24 03:55:05;;;;;;;;;12.00;8.75;;;;;15.02;71.93;101735.09;4967165;28;47059;-67
2021/06/24 03:57:30;;;;;;;;;11.00;8.50;;;;;14.99;72.65;101744.22;4965074;28;45680;-68
2021/06/24 03:59:56;;;;;;;;;9.75;7.50;;;;;14.97;72.14;101734.72;4964459;28;45592;-68
2021/06/24 04:02:22;;;;;;;;;12.00;8.00;;;;;14.94;71.48;101740.34;4964089;28;45530;-68
2021/06/24 04:04:48;;;;;;;;;9.50;9.00;;;;;14.92;72.61;101743.16;4963874;28;46542;-69
2021/06/24 04:07:13;;;;;;;;;7.25;7.25;;;;;14.93;73.13;101746.66;4966953;28;46023;-69
2021/06/24 04:09:38;;;;;;;;;10.50;8.75;;;;;14.92;72.96;101740.50;4963231;28;45480;-68
2021/06/24 04:12:04;;;;;;;;;8.75;8.25;;;;;14.92;72.77;101739.66;4963705;28;45734;-68
2021/06/24 04:14:30;;;;;;;;;14.00;9.00;;;;;14.92;72.56;101734.34;4966860;28;45902;-67
2021/06/24 04:16:55;;;;;;;;;12.25;8.00;;;;;14.92;72.12;101740.50;4967503;28;45755;-66
2021/06/24 04:19:21;;;;;;;;;8.75;8.75;;;;;14.91;72.29;101746.81;4972217;28;45766;-67
2021/06/24 04:21:46;;;;;;;;;11.75;9.00;;;;;14.91;72.21;101743.31;4966658;28;45609;-66
2021/06/24 04:24:11;;;;;;;;;10.25;8.50;;;;;14.92;71.69;101737.00;4963602;28;45528;-68
2021/06/24 04:26:37;;;;;;;;;11.50;8.50;;;;;14.92;71.20;101739.66;4965356;28;45553;-67
2021/06/24 04:29:02;;;;;;;;;9.25;9.25;;;;;14.90;71.72;101741.63;4965918;28;46261;-67
2021/06/24 04:31:28;;;;;;;;;9.25;8.25;;;;;14.91;71.51;101748.63;4969097;28;45555;-67
2021/06/24 04:33:53;;;;;;;;;9.25;9.00;;;;;14.92;71.50;101747.66;4966718;28;46761;-70
2021/06/24 04:36:18;;;;;;;;;9.75;9.25;;;;;14.92;71.45;101745.81;4972342;28;45601;-69
2021/06/24 04:38:44;;;;;;;;;9.50;7.50;;;;;14.93;71.53;101750.13;4974981;28;45658;-66
2021/06/24 04:41:09;;;;;;;;;13.00;11.50;;;;;14.95;71.79;101747.34;4970084;28;45529;-67
2021/06/24 04:43:35;;;;;;;;;12.50;8.25;;;;;14.94;71.13;101753.66;4969595;28;47483;-66
2021/06/24 04:46:00;;;;;;;;;11.50;10.75;;;;;14.94;70.99;101758.97;4972159;28;45477;-70
2021/06/24 04:48:25;;;;;;;;;14.75;8.25;;;;;14.94;70.91;101764.31;4970267;28;45528;-68
2021/06/24 04:50:51;;;;;;;;;11.50;8.75;;;;;14.96;71.00;101762.31;4963930;28;45586;-71
2021/06/24 04:53:16;;;;;;;;;9.75;8.75;;;;;14.98;71.34;101761.16;4968021;28;45570;-68
2021/06/24 04:55:41;;;;;;;;;12.00;9.00;;;;;15.01;70.94;101762.72;4973531;28;45546;-67
2021/06/24 04:58:08;;;;;;;;;12.25;11.00;;;;;15.03;70.80;101763.38;4975518;28;45568;-71
2021/06/24 05:00:35;;;;;;;;;10.25;10.00;;;;;15.04;71.35;101763.22;4970166;28;45426;-69
2021/06/24 05:03:02;;;;;;;;;10.50;10.00;;;;;15.06;70.87;101757.75;4971458;28;47277;-67
2021/06/24 05:05:27;;;;;;;;;11.25;9.00;;;;;15.07;71.17;101762.09;4970235;28;45561;-68
2021/06/24 05:07:53;;;;;;;;;13.75;10.00;;;;;15.10;71.24;101763.59;4971646;28;45498;-68
2021/06/24 05:10:18;;;;;;;;;12.75;10.75;;;;;15.11;71.03;101771.44;4971564;28;45525;-66
2021/06/24 05:12:44;;;;;;;;;13.00;10.00;;;;;15.12;70.56;101767.78;4972780;28;45808;-65
2021/06/24 05:15:10;;;;;;;;;9.50;8.50;;;;;15.12;70.40;101762.44;4974348;28;45541;-66
2021/06/24 05:17:37;;;;;;;;;10.25;10.00;;;;;15.13;70.54;101764.13;4970840;28;45662;-68
2021/06/24 05:20:03;;;;;;;;;11.00;9.00;;;;;15.15;70.81;101767.47;4966813;28;45545;-65
2021/06/24 05:22:29;;;;;;;;;12.50;10.25;;;;;15.17;70.54;101762.81;4966880;28;46423;-67
2021/06/24 05:24:54;;;;;;;;;9.00;9.00;;;;;15.20;70.44;101759.84;4963790;28;45527;-67
2021/06/24 05:27:20;;;;;;;;;13.25;10.25;;;;;15.21;70.17;101766.88;4968088;28;45624;-68
2021/06/24 05:29:45;;;;;;;;;8.75;8.00;;;;;15.25;71.14;101762.06;4966990;28;45653;-68
2021/06/24 05:32:10;;;;;;;;;10.50;10.00;;;;;15.32;70.78;101754.28;4966783;28;46934;-63
2021/06/24 05:34:36;;;;;;;;;14.50;11.00;;;;;15.37;69.76;101747.50;4967847;28;45580;-68
2021/06/24 05:37:03;;;;;;;;;11.75;9.00;;;;;15.42;69.66;101749.69;4967426;28;45521;-68
2021/06/24 05:39:28;;;;;;;;;9.00;9.00;;;;;15.46;69.72;101751.06;4967959;28;47240;-63
2021/06/24 05:41:57;;;;;;;;;11.50;11.50;;;;;15.51;70.16;101751.41;4965681;28;47130;-63
2021/06/24 05:44:23;;;;;;;;;12.75;10.75;;;;;15.56;70.36;101753.63;4966298;28;45591;-69
2021/06/24 05:46:49;;;;;;;;;16.00;10.75;;;;;15.61;70.12;101754.81;4955114;28;45597;-67
2021/06/24 05:49:14;;;;;;;;;9.25;8.00;;;;;15.63;69.45;101750.16;4966002;28;45435;-70
2021/06/24 05:51:39;;;;;;;;;10.75;7.25;;;;;15.65;69.10;101758.84;4962044;28;45963;-68
2021/06/24 05:54:04;;;;;;;;;11.25;11.00;;;;;15.63;69.05;101760.00;4963242;28;45966;-64
2021/06/24 05:56:30;;;;;;;;;9.50;9.50;;;;;15.62;68.79;101764.47;4965358;28;45505;-64
2021/06/24 05:58:56;;;;;;;;;10.25;10.25;;;;;15.62;69.58;101759.13;4967608;28;45821;-63
2021/06/24 06:01:22;;;;;;;;;15.25;11.00;;;;;15.64;68.91;101765.16;4965043;28;46165;-63
2021/06/24 06:03:47;;;;;;;;;13.00;9.00;;;;;15.63;69.59;101763.47;4962381;28;45612;-63
2021/06/24 06:06:13;;;;;;;;;9.25;9.25;;;;;15.63;68.93;101778.66;4965108;28;45507;-64
2021/06/24 06:08:38;;;;;;;;;10.75;9.50;;;;;15.62;69.39;101774.28;4982033;28;45556;-68
2021/06/24 06:11:04;;;;;;;;;8.00;8.00;;;;;15.60;68.71;101776.28;4968360;28;45423;-68
2021/06/24 06:13:30;;;;;;;;;12.00;9.50;;;;;15.59;68.71;101771.94;4968102;28;45574;-69
2021/06/24 06:15:55;;;;;;;;;11.00;10.00;;;;;15.59;69.55;101780.78;4968621;28;45599;-66
2021/06/24 06:18:24;;;;;;;;;11.00;10.00;;;;;15.61;69.30;101784.13;4967327;28;45486;-66
2021/06/24 06:20:50;;;;;;;;;10.00;9.00;;;;;15.63;69.33;101784.81;4963173;28;45935;-66
2021/06/24 06:23:18;;;;;;;;;11.00;9.00;;;;;15.64;68.77;101788.31;4964664;28;45576;-63
2021/06/24 06:25:46;;;;;;;;;8.00;7.25;;;;;15.65;69.27;101784.63;4967789;28;45979;-66
2021/06/24 06:28:13;;;;;;;;;9.75;8.00;;;;;15.65;69.33;101790.81;4967320;28;45528;-68
2021/06/24 06:30:39;;;;;;;;;9.00;7.50;;;;;15.66;69.24;101789.81;4963398;28;47339;-69
2021/06/24 06:33:05;;;;;;;;;12.00;9.75;;;;;15.67;68.85;101796.81;4964926;28;45564;-68
2021/06/24 06:35:31;;;;;;;;;14.75;9.25;;;;;15.62;69.03;101799.09;4966665;28;45474;-71
2021/06/24 06:37:56;;;;;;;;;10.75;10.50;;;;;15.60;69.95;101802.91;4966029;28;45465;-67
2021/06/24 06:40:22;;;;;;;;;11.25;9.00;;;;;15.60;69.68;101803.78;4970567;28;45549;-68
2021/06/24 06:42:47;;;;;;;;;9.75;9.75;;;;;15.61;70.08;101800.09;4964324;28;45490;-71
2021/06/24 06:45:14;;;;;;;;;12.50;9.00;;;;;15.61;69.99;101802.78;4959050;28;45512;-70
2021/06/24 06:47:39;;;;;;;;;12.00;10.25;;;;;15.62;69.89;101804.44;4961792;28;45898;-69
2021/06/24 06:50:06;;;;;;;;;11.50;10.00;;;;;15.65;69.95;101806.81;4964004;28;48038;-67
2021/06/24 06:52:31;;;;;;;;;8.75;6.25;;;;;15.65;68.80;101809.47;4959737;28;45612;-67
2021/06/24 06:54:56;;;;;;;;;10.00;10.00;;;;;15.66;68.48;101803.13;4962310;28;45531;-71
2021/06/24 06:57:22;;;;;;;;;11.50;10.00;;;;;15.67;68.91;101810.13;4960585;28;45609;-73
2021/06/24 06:59:47;;;;;;;;;11.00;9.75;;;;;15.71;68.32;101809.88;4967261;28;47055;-63
2021/06/24 07:02:13;;;;;;;;;10.50;10.00;;;;;15.72;68.47;101800.88;4965070;28;45592;-65
2021/06/24 07:04:38;;;;;;;;;10.75;8.00;;;;;15.75;68.41;101817.41;4965190;28;45613;-68
2021/06/24 07:07:04;;;;;;;;;10.00;9.25;;;;;15.73;68.44;101810.56;4967484;28;45537;-69
2021/06/24 07:09:29;;;;;;;;;10.75;10.00;;;;;15.76;68.16;101810.22;4960928;28;47198;-67
2021/06/24 07:11:54;;;;;;;;;12.50;10.75;;;;;15.77;68.53;101815.38;4962599;28;45582;-64
2021/06/24 07:14:21;;;;;;;;;12.00;10.75;;;;;15.79;68.37;101813.41;4964712;28;45470;-64
2021/06/24 07:16:47;;;;;;;;;13.75;9.75;;;;;15.83;68.32;101817.44;4967139;28;45621;-67
2021/06/24 07:19:13;;;;;;;;;11.75;10.25;;;;;15.87;69.41;101812.63;4963968;28;46185;-69
2021/06/24 07:21:38;;;;;;;;;9.00;8.00;;;;;15.94;67.75;101818.16;4956738;28;46173;-70
2021/06/24 07:24:04;;;;;;;;;12.50;10.25;;;;;16.00;67.70;101812.19;4960263;28;45817;-69
2021/06/24 07:26:29;;;;;;;;;9.25;9.25;;;;;16.04;68.41;101811.69;4955096;28;45704;-67
2021/06/24 07:28:55;;;;;;;;;14.00;11.00;;;;;16.11;67.46;101812.75;4962169;28;46482;-64
2021/06/24 07:31:20;;;;;;;;;12.75;11.00;;;;;16.16;67.55;101808.78;4966722;28;45472;-69
2021/06/24 07:33:46;;;;;;;;;11.00;11.00;;;;;16.19;67.41;101819.94;4964420;28;45595;-69
2021/06/24 07:36:11;;;;;;;;;12.75;9.00;;;;;16.21;66.89;101822.47;4963720;28;46016;-67
2021/06/24 07:38:36;;;;;;;;;9.00;8.00;;;;;16.23;67.45;101825.81;4966196;28;46232;-67
2021/06/24 07:41:02;;;;;;;;;12.00;10.75;;;;;16.25;66.37;101818.50;4962959;28;45587;-71
2021/06/24 07:43:27;;;;;;;;;9.50;7.75;;;;;16.26;66.64;101820.16;4963550;28;45603;-70
2021/06/24 07:45:53;;;;;;;;;14.00;11.50;;;;;16.27;66.76;101824.47;4965233;28;45620;-70
2021/06/24 07:48:18;;;;;;;;;12.25;11.00;;;;;16.27;66.40;101827.13;4964242;28;45523;-67
2021/06/24 07:50:44;;;;;;;;;10.25;9.75;;;;;16.28;66.49;101820.81;4960517;28;45536;-64
2021/06/24 07:53:09;;;;;;;;;10.75;8.75;;;;;16.33;66.81;101823.84;4964306;28;45554;-64
2021/06/24 07:55:34;;;;;;;;;10.00;9.00;;;;;16.41;66.98;101823.03;4956178;28;45501;-66
2021/06/24 07:58:05;;;;;;;;;13.50;9.50;;;;;16.47;66.50;101828.56;4964784;28;46949;-69
2021/06/24 08:00:31;;;;;;;;;10.00;10.00;;;;;16.52;65.97;101820.09;4959603;28;45488;-67
2021/06/24 08:02:57;;;;;;;;;13.00;10.25;;;;;16.56;66.06;101824.91;4959537;28;45650;-67
2021/06/24 08:05:23;;;;;;;;;11.00;9.75;;;;;16.66;66.49;101826.63;4965957;28;45542;-67
2021/06/24 08:07:49;;;;;;;;;11.75;11.25;;;;;16.71;66.27;101819.78;4967376;28;45552;-69
2021/06/24 08:10:15;;;;;;;;;12.00;11.50;;;;;16.80;65.59;101818.00;4963168;28;45708;-68
2021/06/24 08:12:42;;;;;;;;;15.50;12.75;;;;;16.88;65.29;101827.88;4961637;28;45651;-69
2021/06/24 08:15:10;;;;;;;;;16.25;12.75;;;;;16.93;65.09;101828.19;4960483;28;45444;-68
2021/06/24 08:17:35;;;;;;;;;10.25;9.75;;;;;17.00;65.10;101823.06;4962212;28;46213;-70
2021/06/24 08:20:01;;;;;;;;;11.75;11.00;;;;;17.08;64.77;101818.53;4962431;28;45666;-67
2021/06/24 08:22:28;;;;;;;;;13.00;10.00;;;;;17.15;64.39;101821.38;4966766;28;45454;-67
2021/06/24 08:24:53;;;;;;;;;13.75;11.25;;;;;17.19;64.41;101817.38;4967350;28;45628;-69
2021/06/24 08:27:19;;;;;;;;;15.00;12.25;;;;;17.26;64.00;101829.09;4960752;28;47054;-66
2021/06/24 08:29:44;;;;;;;;;14.00;13.00;;;;;17.30;64.09;101827.72;4964883;28;45475;-70
2021/06/24 08:32:10;;;;;;;;;13.50;11.00;;;;;17.37;63.91;101825.22;4962937;28;45465;-68
2021/06/24 08:34:35;;;;;;;;;15.00;12.25;;;;;17.46;64.87;101824.22;4967344;28;45490;-68
2021/06/24 08:37:01;;;;;;;;;16.75;13.75;;;;;17.58;63.85;101827.38;4967507;28;45538;-66
2021/06/24 08:39:26;;;;;;;;;15.75;13.00;;;;;17.68;63.78;101822.69;4962954;28;45442;-68
2021/06/24 08:41:51;;;;;;;;;16.25;12.50;;;;;17.78;63.19;101834.03;4966086;28;45819;-64
2021/06/24 08:44:20;;;;;;;;;13.00;11.75;;;;;17.89;63.50;101824.03;4965886;28;47605;-69
2021/06/24 08:46:51;;;;;;;;;19.25;14.50;;;;;18.00;63.24;101823.63;4964121;28;45573;-69
2021/06/24 08:49:22;;;;;;;;;18.00;13.50;;;;;18.09;62.76;101819.94;4964375;28;45606;-68
2021/06/24 08:51:47;;;;;;;;;16.50;13.50;;;;;18.17;62.49;101819.06;4978653;28;45632;-68
2021/06/24 08:54:13;;;;;;;;;19.25;14.25;;;;;18.26;62.13;101821.53;4964523;28;45472;-64
2021/06/24 08:56:40;;;;;;;;;15.25;13.50;;;;;18.34;61.51;101823.34;4962302;28;47359;-68
2021/06/24 08:59:05;;;;;;;;;16.50;13.00;;;;;18.41;62.10;101823.50;4963067;28;45489;-63
2021/06/24 09:01:51;;;;;;;;;13.00;12.00;;;;;18.45;61.98;101824.81;4973443;28;45359;-71
2021/06/24 09:04:26;;;;;;;;;13.75;12.00;;;;;18.48;61.38;101825.28;4969495;28;45565;-68
2021/06/24 09:06:52;;;;;;;;;15.50;12.25;;;;;18.47;61.51;101828.13;4969382;28;47053;-64
2021/06/24 09:09:25;;;;;;;;;14.75;12.75;;;;;18.50;61.68;101838.50;4968122;28;45563;-67
2021/06/24 09:12:06;;;;;;;;;13.00;11.50;;;;;18.53;61.38;101826.63;4961048;28;45575;-69
2021/06/24 09:14:48;;;;;;;;;12.25;12.00;;;;;18.54;60.78;101831.78;4971031;28;45471;-67
2021/06/24 09:17:31;;;;;;;;;15.00;11.50;;;;;18.62;62.14;101836.25;4963068;28;47206;-66
2021/06/24 09:19:57;;;;;;;;;17.25;14.25;;;;;18.71;60.66;101837.88;4969478;28;45430;-67
2021/06/24 09:22:22;;;;;;;;;12.25;11.50;;;;;18.80;61.42;101839.53;4969915;28;45399;-67
2021/06/24 09:24:49;;;;;;;;;13.75;11.75;;;;;18.91;61.23;101838.28;4959446;28;45529;-69
2021/06/24 09:27:17;;;;;;;;;13.25;12.25;;;;;19.02;60.78;101842.44;4963615;28;46265;-69
2021/06/24 09:30:03;;;;;;;;;16.00;13.75;;;;;19.16;60.29;101843.47;4968238;28;56712;-67
2021/06/24 09:32:35;;;;;;;;;13.75;13.25;;;;;19.26;60.09;101838.69;4960918;28;45673;-67
2021/06/24 09:35:03;;;;;;;;;12.25;11.75;;;;;19.34;59.86;101841.34;4970548;28;45691;-67
2021/06/24 09:37:50;;;;;;;;;15.25;12.50;;;;;19.44;59.52;101844.59;4969724;28;45512;-65
2021/06/24 09:40:16;;;;;;;;;16.00;13.00;;;;;19.59;59.10;101844.63;4972540;28;45557;-65
2021/06/24 09:42:41;;;;;;;;;12.00;12.00;;;;;19.79;58.93;101844.16;4958922;28;45589;-66
2021/06/24 09:45:07;;;;;;;;;14.00;11.50;;;;;19.96;59.06;101841.09;4969254;28;45457;-65
2021/06/24 09:47:32;;;;;;;;;13.75;11.50;;;;;20.09;58.78;101850.34;4970274;28;46091;-67
2021/06/24 09:50:01;;;;;;;;;12.50;12.50;;;;;20.21;59.32;101851.56;4964150;28;45441;-67
2021/06/24 09:52:28;;;;;;;;;15.25;13.00;;;;;20.29;57.39;101850.63;4968880;28;45636;-65
2021/06/24 09:55:13;;;;;;;;;10.75;9.50;;;;;20.29;57.39;101851.44;4961968;28;45746;-65
2021/06/24 09:57:39;;;;;;;;;10.50;10.50;;;;;20.34;57.72;101848.19;4966956;28;45497;-64
2021/06/24 10:00:27;;;;;;;;;14.75;13.50;;;;;20.45;56.78;101854.94;4965332;28;45504;-65
2021/06/24 10:03:03;;;;;;;;;14.00;10.75;;;;;20.55;57.16;101850.16;4963829;28;45608;-65
2021/06/24 10:05:29;;;;;;;;;11.50;11.50;;;;;20.66;57.65;101855.03;4964534;28;45551;-69
2021/06/24 10:07:56;;;;;;;;;12.75;12.00;;;;;20.79;57.03;101857.03;4963668;28;46964;-67
2021/06/24 10:10:23;;;;;;;;;10.75;9.75;;;;;20.91;56.38;101849.31;4967511;28;45485;-71
2021/06/24 10:12:49;;;;;;;;;11.25;9.25;;;;;20.99;56.08;101851.84;4962206;28;45505;-68
2021/06/24 10:15:16;;;;;;;;;11.75;10.50;;;;;21.03;55.88;101850.47;4970758;28;45628;-68
2021/06/24 10:17:42;;;;;;;;;14.50;12.00;;;;;21.03;55.14;101855.84;4958733;28;47312;-69
2021/06/24 10:20:09;;;;;;;;;10.75;10.50;;;;;21.01;55.44;101850.66;4962612;28;45524;-64
2021/06/24 10:22:36;;;;;;;;;14.00;13.25;;;;;21.00;55.36;101850.84;4960808;28;45485;-75
2021/06/24 10:25:09;;;;;;;;;12.00;11.50;;;;;21.01;54.52;101857.88;4959417;28;46018;-66
2021/06/24 10:27:39;;;;;;;;;13.00;11.50;;;;;21.00;55.16;101849.00;4956582;28;46219;-67
2021/06/24 10:30:16;;;;;;;;;11.50;11.50;;;;;21.01;55.12;101847.97;4964520;28;45619;-66
2021/06/24 10:32:57;;;;;;;;;15.00;12.00;;;;;21.11;55.84;101847.63;4965526;28;45699;-69
2021/06/24 10:35:25;;;;;;;;;13.00;13.00;;;;;21.24;55.64;101844.22;4964475;28;45493;-67
2021/06/24 10:37:52;;;;;;;;;16.50;14.25;;;;;21.33;55.35;101850.31;4976209;28;47089;-69
2021/06/24 10:40:54;;;;;;;;;14.25;9.50;;;;;21.51;54.96;101856.09;4967814;28;45936;-67
2021/06/24 10:43:20;;;;;;;;;13.75;11.75;;;;;21.63;54.55;101859.06;4943858;28;45440;-66
2021/06/24 10:45:46;;;;;;;;;13.25;13.00;;;;;21.72;54.02;101857.09;4943212;28;45631;-67
2021/06/24 10:48:29;;;;;;;;;12.75;10.50;;;;;21.80;54.30;101854.25;4941974;28;46856;-66
2021/06/24 10:51:34;;;;;;;;;15.50;13.50;;;;;21.95;52.83;101851.44;4947822;28;45505;-66
2021/06/24 10:53:59;;;;;;;;;11.75;10.00;;;;;22.07;52.09;101845.28;4951051;28;45553;-67
2021/06/24 10:56:32;;;;;;;;;11.75;10.00;;;;;22.07;52.80;101853.38;4941528;28;45507;-67
2021/06/24 10:59:00;;;;;;;;;16.00;12.25;;;;;22.10;53.04;101852.97;4932088;28;48379;-67
2021/06/24 11:01:41;;;;;;;;;17.25;12.00;;;;;22.19;53.72;101850.13;4945921;28;45444;-69
2021/06/24 11:04:09;;;;;;;;;17.00;13.00;;;;;22.33;52.44;101844.63;4947032;28;45626;-69
2021/06/24 11:06:40;;;;;;;;;12.25;12.25;;;;;22.54;51.69;101840.97;4949760;28;45561;-66
2021/06/24 11:09:15;;;;;;;;;15.75;13.75;;;;;22.76;51.99;101838.97;4946016;28;47533;-67
2021/06/24 11:11:43;;;;;;;;;15.50;11.50;;;;;23.11;52.23;101835.34;4940267;28;45678;-69
2021/06/24 11:14:09;;;;;;;;;10.50;10.50;;;;;23.49;50.83;101842.78;4951649;28;45510;-68